Time;durP1;ratioP1;P1;durP2;ratioP2;P2;SDS_P1;SDS_P2;PMS_P1;PMS_P2;Temp;Humidity;BMP_temperature;BMP_pressure;BME280_temperature;BME280_humidity;BME280_pressure;Samples;Min_cycle;Max_cycle;Signal;HPM_P1;HPM_P2
2023/07/20 00:01:29;;;;;;;8.20;2.40;;;;;;;19.95;100.00;97215.41;5032196;28;20410;-73
2023/07/20 00:03:55;;;;;;;4.07;2.67;;;;;;;19.94;100.00;97221.88;5032312;28;20594;-73
2023/07/20 00:06:24;;;;;;;4.97;2.38;;;;;;;19.87;100.00;97223.44;5032184;28;21041;-73
2023/07/20 00:08:51;;;;;;;4.38;2.47;;;;;;;19.83;100.00;97225.19;5032147;28;20461;-73
2023/07/20 00:11:17;;;;;;;10.60;2.83;;;;;;;19.80;100.00;97223.13;5032138;28;20407;-73
2023/07/20 00:13:43;;;;;;;5.10;2.63;;;;;;;19.83;100.00;97223.31;5032145;28;20801;-73
2023/07/20 00:16:09;;;;;;;3.97;2.50;;;;;;;19.76;100.00;97214.94;5031947;28;20525;-73
2023/07/20 00:18:35;;;;;;;2.85;2.30;;;;;;;19.68;100.00;97213.81;5031974;28;20426;-73
2023/07/20 00:21:02;;;;;;;3.25;2.13;;;;;;;19.72;100.00;97213.97;5031911;28;20403;-73
2023/07/20 00:23:29;;;;;;;4.60;2.33;;;;;;;19.68;100.00;97221.88;5030643;28;20414;-73
2023/07/20 00:25:55;;;;;;;5.18;2.20;;;;;;;19.69;100.00;97228.03;5031620;28;20958;-73
2023/07/20 00:28:22;;;;;;;5.97;2.50;;;;;;;19.63;100.00;97221.19;5032014;28;20407;-73
2023/07/20 00:30:48;;;;;;;3.67;2.20;;;;;;;19.59;100.00;97215.69;5031627;28;20407;-73
2023/07/20 00:33:17;;;;;;;3.38;2.42;;;;;;;19.56;100.00;97216.28;5027773;28;20413;-73
2023/07/20 00:35:44;;;;;;;4.85;2.42;;;;;;;19.53;100.00;97219.63;5034690;28;20999;-73
2023/07/20 00:38:11;;;;;;;8.13;2.80;;;;;;;19.49;100.00;97212.47;5035876;28;20402;-73
2023/07/20 00:40:39;;;;;;;4.65;2.55;;;;;;;19.44;100.00;97223.34;5035815;28;20414;-73
2023/07/20 00:43:06;;;;;;;3.38;2.30;;;;;;;19.44;100.00;97220.66;5030345;28;20411;-73
2023/07/20 00:45:34;;;;;;;4.88;2.45;;;;;;;19.37;100.00;97228.38;5023235;28;20403;-73
2023/07/20 00:48:03;;;;;;;5.73;2.40;;;;;;;19.42;100.00;97225.53;5031351;28;20769;-73
2023/07/20 00:50:31;;;;;;;3.95;2.50;;;;;;;19.36;100.00;97216.84;5031449;28;20485;-73
2023/07/20 00:52:57;;;;;;;6.30;2.20;;;;;;;19.30;100.00;97218.91;5031259;28;20483;-73
2023/07/20 00:55:25;;;;;;;4.07;2.20;;;;;;;19.28;100.00;97217.63;5030985;28;20913;-73
2023/07/20 00:57:52;;;;;;;3.93;2.60;;;;;;;19.24;100.00;97222.81;5030960;28;20439;-73
2023/07/20 01:00:19;;;;;;;6.20;2.70;;;;;;;19.23;100.00;97223.13;5031218;28;20519;-73
2023/07/20 01:02:45;;;;;;;3.55;2.28;;;;;;;19.17;100.00;97229.75;5030916;28;20426;-73
2023/07/20 01:05:13;;;;;;;5.82;2.58;;;;;;;19.18;100.00;97228.63;5030981;28;20395;-73
2023/07/20 01:07:46;;;;;;;3.30;2.22;;;;;;;19.10;100.00;97230.16;5031191;28;20407;-74
2023/07/20 01:10:19;;;;;;;3.60;2.40;;;;;;;19.04;100.00;97223.34;5030003;28;20407;-74
2023/07/20 01:12:51;;;;;;;5.67;2.70;;;;;;;19.02;100.00;97222.09;5031001;28;20470;-74
2023/07/20 01:15:19;;;;;;;3.97;2.47;;;;;;;18.97;100.00;97224.91;5030746;28;20789;-73
2023/07/20 01:17:45;;;;;;;3.40;2.67;;;;;;;18.98;100.00;97219.22;5030927;28;20443;-72
2023/07/20 01:20:14;;;;;;;5.63;2.50;;;;;;;19.01;100.00;97220.53;5030956;28;20427;-73
2023/07/20 01:23:22;;;;;;;2.83;2.40;;;;;;;18.98;100.00;97224.59;5030796;28;20465;-74
2023/07/20 01:26:08;;;;;;;4.22;2.50;;;;;;;18.89;100.00;97229.91;5030490;28;20792;-72
2023/07/20 01:29:08;;;;;;;4.28;2.72;;;;;;;18.87;100.00;97225.94;5030896;28;20956;-73
2023/07/20 01:31:38;;;;;;;5.70;2.80;;;;;;;18.80;100.00;97221.03;5022703;28;22595;-74
2023/07/20 01:34:08;;;;;;;5.37;2.67;;;;;;;18.83;100.00;97225.00;5030536;28;20403;-74
2023/07/20 01:36:37;;;;;;;7.72;2.80;;;;;;;18.77;100.00;97224.34;5030542;28;20800;-73
2023/07/20 01:39:04;;;;;;;4.60;2.63;;;;;;;18.72;100.00;97224.44;5030513;28;21042;-73
2023/07/20 01:41:31;;;;;;;5.03;2.67;;;;;;;18.66;100.00;97228.38;5030465;28;20426;-74
2023/07/20 01:43:59;;;;;;;5.07;2.87;;;;;;;18.60;100.00;97226.91;5030483;28;20460;-74
2023/07/20 01:46:25;;;;;;;5.93;2.80;;;;;;;18.60;100.00;97231.47;5030296;28;20404;-73
2023/07/20 01:48:54;;;;;;;5.57;3.38;;;;;;;18.54;100.00;97220.88;5030447;28;20482;-74
2023/07/20 01:51:20;;;;;;;6.85;3.00;;;;;;;18.54;100.00;97223.53;5030422;28;20486;-74
2023/07/20 01:53:46;;;;;;;5.75;2.67;;;;;;;18.55;100.00;97219.78;5030646;28;20405;-74
2023/07/20 01:56:12;;;;;;;5.00;2.55;;;;;;;18.48;100.00;97219.41;5050180;28;20417;-74
2023/07/20 01:58:38;;;;;;;4.65;2.67;;;;;;;18.46;100.00;97223.50;5050286;28;20500;-73
2023/07/20 02:01:05;;;;;;;4.65;2.70;;;;;;;18.44;100.00;97228.34;5050054;28;20405;-74
2023/07/20 02:03:31;;;;;;;5.32;2.92;;;;;;;18.40;100.00;97219.34;5050269;28;20401;-73
2023/07/20 02:05:59;;;;;;;4.50;2.73;;;;;;;18.36;100.00;97224.50;5050062;28;20412;-73
2023/07/20 02:08:25;;;;;;;5.95;3.00;;;;;;;18.34;100.00;97217.91;5050254;28;20907;-73
2023/07/20 02:10:51;;;;;;;8.77;2.90;;;;;;;18.32;100.00;97222.75;5053996;28;20455;-73
2023/07/20 02:13:18;;;;;;;7.43;3.08;;;;;;;18.31;100.00;97224.66;5054388;28;20401;-73
2023/07/20 02:15:44;;;;;;;3.83;2.80;;;;;;;18.26;100.00;97229.34;5053992;28;20898;-73
2023/07/20 02:18:10;;;;;;;6.78;2.80;;;;;;;18.29;100.00;97229.50;5054286;28;20801;-73
2023/07/20 02:20:37;;;;;;;6.47;2.90;;;;;;;18.26;100.00;97235.50;5054174;28;20466;-73
2023/07/20 02:23:04;;;;;;;4.03;2.87;;;;;;;18.23;100.00;97229.94;5053917;28;20405;-73
2023/07/20 02:25:30;;;;;;;4.20;2.88;;;;;;;18.12;100.00;97230.16;5053938;28;20401;-73
2023/07/20 02:27:58;;;;;;;5.85;2.90;;;;;;;18.07;100.00;97232.16;5053945;28;20466;-73
2023/07/20 02:30:24;;;;;;;5.43;3.10;;;;;;;18.03;100.00;97223.16;5053824;28;20492;-73
2023/07/20 02:32:50;;;;;;;5.70;2.93;;;;;;;17.99;100.00;97222.97;5053872;28;20442;-73
2023/07/20 02:35:16;;;;;;;4.72;2.92;;;;;;;17.99;100.00;97228.31;5053727;28;20778;-73
2023/07/20 02:37:43;;;;;;;5.18;3.33;;;;;;;17.91;100.00;97230.94;5053850;28;20401;-73
2023/07/20 02:40:11;;;;;;;5.22;3.20;;;;;;;17.82;100.00;97233.53;5053852;28;20817;-73
2023/07/20 02:42:37;;;;;;;4.65;3.13;;;;;;;17.85;100.00;97234.81;5053669;28;20447;-73
2023/07/20 02:45:05;;;;;;;5.32;3.10;;;;;;;17.75;100.00;97235.81;5053680;28;20411;-73
2023/07/20 02:47:31;;;;;;;4.55;3.08;;;;;;;17.74;100.00;97231.59;5053833;28;20400;-73
2023/07/20 02:49:57;;;;;;;4.45;3.08;;;;;;;17.74;100.00;97232.34;5052402;28;20441;-73
2023/07/20 02:52:24;;;;;;;6.30;3.13;;;;;;;17.71;100.00;97234.84;5053511;28;20794;-73
2023/07/20 02:54:50;;;;;;;4.40;2.70;;;;;;;17.69;100.00;97235.13;5053425;28;20505;-73
2023/07/20 02:57:18;;;;;;;5.65;3.20;;;;;;;17.65;100.00;97239.53;5052354;28;20420;-73
2023/07/20 02:59:44;;;;;;;6.32;3.00;;;;;;;17.61;100.00;97245.72;5053304;28;20905;-73
2023/07/20 03:02:10;;;;;;;5.75;3.08;;;;;;;17.55;100.00;97242.38;5053310;28;20476;-73
2023/07/20 03:04:37;;;;;;;4.25;2.80;;;;;;;17.53;100.00;97247.22;5053237;28;20930;-73
2023/07/20 03:07:04;;;;;;;5.47;2.87;;;;;;;17.51;100.00;97240.59;5053475;28;20548;-73
2023/07/20 03:09:30;;;;;;;5.28;3.10;;;;;;;17.52;100.00;97247.50;5053436;28;20433;-73
2023/07/20 03:11:56;;;;;;;5.90;3.00;;;;;;;17.51;100.00;97244.06;5053054;28;20416;-73
2023/07/20 03:14:23;;;;;;;3.90;2.72;;;;;;;17.48;100.00;97241.19;5053032;28;20994;-73
2023/07/20 03:16:50;;;;;;;4.90;2.83;;;;;;;17.47;100.00;97248.41;5043807;28;20407;-73
2023/07/20 03:19:16;;;;;;;6.10;3.30;;;;;;;17.49;100.00;97248.91;5033209;28;20407;-73
2023/07/20 03:21:42;;;;;;;7.10;3.10;;;;;;;17.45;100.00;97245.25;5032922;28;20403;-73
2023/07/20 03:24:09;;;;;;;5.63;2.80;;;;;;;17.45;100.00;97250.59;5033137;28;20912;-73
2023/07/20 03:26:36;;;;;;;9.02;3.33;;;;;;;17.46;100.00;97246.03;5032938;28;20799;-73
2023/07/20 03:29:02;;;;;;;5.40;2.97;;;;;;;17.41;100.00;97246.94;5033048;28;20417;-73
2023/07/20 03:31:30;;;;;;;6.35;3.22;;;;;;;17.42;100.00;97248.53;5033026;28;20494;-73
2023/07/20 03:33:56;;;;;;;4.10;2.70;;;;;;;17.44;100.00;97249.03;5032925;28;20403;-73
2023/07/20 03:36:22;;;;;;;4.90;3.15;;;;;;;17.38;100.00;97259.03;5032785;28;20549;-73
2023/07/20 03:38:49;;;;;;;10.07;3.10;;;;;;;17.39;100.00;97244.56;5032788;28;20434;-73
2023/07/20 03:41:16;;;;;;;4.18;2.78;;;;;;;17.38;100.00;97248.31;5032747;28;20760;-73
2023/07/20 03:43:42;;;;;;;6.57;2.90;;;;;;;17.39;100.00;97254.47;5032714;28;20548;-73
2023/07/20 03:46:08;;;;;;;4.45;3.17;;;;;;;17.35;100.00;97248.13;5032424;28;20404;-73
2023/07/20 03:48:36;;;;;;;6.05;3.05;;;;;;;17.35;100.00;97258.84;5029787;28;20746;-73
2023/07/20 03:51:02;;;;;;;5.53;3.17;;;;;;;17.34;100.00;97252.69;5039934;28;20409;-73
2023/07/20 03:53:28;;;;;;;6.95;3.00;;;;;;;17.32;100.00;97254.88;5049682;28;20879;-73
2023/07/20 03:55:56;;;;;;;7.32;3.13;;;;;;;17.31;100.00;97260.50;5036428;28;20451;-74
2023/07/20 03:58:22;;;;;;;4.93;2.80;;;;;;;17.29;100.00;97255.44;5036683;28;20755;-75
2023/07/20 04:00:52;;;;;;;6.87;3.10;;;;;;;17.30;100.00;97258.91;5032665;28;20406;-73
2023/07/20 04:03:19;;;;;;;4.30;3.20;;;;;;;17.28;100.00;97263.78;5032879;28;20398;-73
2023/07/20 04:05:47;;;;;;;6.60;2.97;;;;;;;17.30;100.00;97259.72;5032505;28;20406;-73
2023/07/20 04:08:13;;;;;;;5.43;2.75;;;;;;;17.30;100.00;97256.25;5032704;28;20403;-73
2023/07/20 04:10:42;;;;;;;9.15;3.25;;;;;;;17.30;100.00;97265.06;5032600;28;20415;-73
2023/07/20 04:13:09;;;;;;;6.80;3.30;;;;;;;17.31;100.00;97268.53;5032442;28;20404;-73
2023/07/20 04:15:35;;;;;;;5.45;2.40;;;;;;;17.38;100.00;97271.59;5032334;28;20454;-73
2023/07/20 04:18:01;;;;;;;7.50;3.47;;;;;;;17.40;100.00;97275.56;5031146;28;20912;-73
2023/07/20 04:20:27;;;;;;;4.13;2.65;;;;;;;17.43;100.00;97268.84;5033978;28;20407;-73
2023/07/20 04:22:55;;;;;;;5.05;3.03;;;;;;;17.42;100.00;97265.38;5038021;28;20434;-73
2023/07/20 04:25:21;;;;;;;4.95;3.33;;;;;;;17.51;100.00;97265.47;5052029;28;20400;-73
2023/07/20 04:27:47;;;;;;;4.60;2.50;;;;;;;17.55;100.00;97260.31;5052068;28;20405;-73
2023/07/20 04:30:15;;;;;;;4.40;2.83;;;;;;;17.58;100.00;97268.53;5047412;28;21008;-73
2023/07/20 04:32:44;;;;;;;4.00;2.80;;;;;;;17.60;100.00;97265.56;5034108;28;20877;-74
2023/07/20 04:35:10;;;;;;;7.97;2.63;;;;;;;17.72;100.00;97263.22;5031183;28;20449;-73
2023/07/20 04:37:36;;;;;;;5.53;2.53;;;;;;;17.77;100.00;97268.44;5047074;28;20508;-73
2023/07/20 04:40:05;;;;;;;6.25;2.47;;;;;;;17.77;100.00;97269.25;5049990;28;20921;-73
2023/07/20 04:42:32;;;;;;;5.13;2.67;;;;;;;17.82;100.00;97271.00;5034281;28;20405;-73
2023/07/20 04:44:58;;;;;;;5.63;2.63;;;;;;;17.88;100.00;97266.34;5041794;28;20489;-73
2023/07/20 04:47:24;;;;;;;5.80;2.70;;;;;;;17.95;100.00;97270.22;5045170;28;20844;-73
2023/07/20 04:49:50;;;;;;;6.33;2.70;;;;;;;17.92;100.00;97270.00;5051362;28;20412;-73
2023/07/20 04:52:16;;;;;;;4.70;2.70;;;;;;;18.00;100.00;97270.09;5051382;28;20417;-74
2023/07/20 04:54:43;;;;;;;7.05;2.80;;;;;;;17.98;100.00;97272.28;5051240;28;20476;-73
2023/07/20 04:57:13;;;;;;;5.50;2.50;;;;;;;18.04;100.00;97272.97;5051623;28;20425;-74
2023/07/20 04:59:39;;;;;;;5.23;2.50;;;;;;;18.08;100.00;97269.38;5051304;28;20437;-73
2023/07/20 05:02:05;;;;;;;5.68;2.47;;;;;;;18.21;100.00;97269.63;5051369;28;20405;-73
2023/07/20 05:04:31;;;;;;;4.38;2.58;;;;;;;18.23;100.00;97272.81;5051423;28;20434;-73
2023/07/20 05:06:57;;;;;;;5.85;2.78;;;;;;;18.33;100.00;97277.94;5042732;28;20410;-73
2023/07/20 05:09:24;;;;;;;4.70;2.70;;;;;;;18.39;100.00;97280.19;5051437;28;20393;-73
2023/07/20 05:11:50;;;;;;;5.63;2.50;;;;;;;18.46;100.00;97269.06;5043609;28;20490;-72
2023/07/20 05:14:17;;;;;;;5.17;2.60;;;;;;;18.46;100.00;97274.41;5033919;28;20414;-73
2023/07/20 05:16:44;;;;;;;5.22;2.30;;;;;;;18.48;100.00;97274.91;5039286;28;20423;-73
2023/07/20 05:19:10;;;;;;;7.82;2.60;;;;;;;18.47;100.00;97273.31;5049362;28;20795;-73
2023/07/20 05:21:36;;;;;;;4.03;2.67;;;;;;;18.51;100.00;97274.28;5049415;28;20397;-73
2023/07/20 05:24:03;;;;;;;4.70;2.58;;;;;;;18.52;100.00;97275.88;5050011;28;20482;-73
2023/07/20 05:26:29;;;;;;;7.53;2.65;;;;;;;18.61;100.00;97267.91;5050510;28;20405;-73
2023/07/20 05:28:55;;;;;;;7.72;2.60;;;;;;;18.61;100.00;97271.41;5050689;28;20828;-73
2023/07/20 05:31:23;;;;;;;6.20;3.00;;;;;;;18.68;100.00;97268.28;5050566;28;20405;-73
2023/07/20 05:33:49;;;;;;;5.13;2.50;;;;;;;18.67;100.00;97267.50;5050718;28;20432;-73
2023/07/20 05:36:15;;;;;;;5.78;2.72;;;;;;;18.66;100.00;97270.47;5050304;28;20417;-73
2023/07/20 05:38:41;;;;;;;6.97;2.50;;;;;;;18.66;100.00;97270.47;5050615;28;20870;-73
2023/07/20 05:41:10;;;;;;;5.60;2.80;;;;;;;18.78;100.00;97273.41;5036864;28;20407;-72
2023/07/20 05:43:36;;;;;;;8.93;2.63;;;;;;;18.75;100.00;97274.00;5044934;28;20411;-73
2023/07/20 05:46:02;;;;;;;4.50;2.70;;;;;;;18.80;100.00;97269.31;5030316;28;20433;-73
2023/07/20 05:48:30;;;;;;;6.35;2.47;;;;;;;18.87;100.00;97271.53;5030426;28;20466;-73
2023/07/20 05:50:56;;;;;;;4.70;2.30;;;;;;;18.81;100.00;97270.09;5032052;28;20418;-73
2023/07/20 05:53:22;;;;;;;7.50;2.45;;;;;;;18.90;100.00;97263.69;5050245;28;20463;-73
2023/07/20 05:55:53;;;;;;;6.60;2.40;;;;;;;18.84;100.00;97269.50;5044585;28;20417;-74
2023/07/20 05:58:19;;;;;;;3.80;2.20;;;;;;;18.94;100.00;97271.94;5049876;28;20401;-73
2023/07/20 06:00:48;;;;;;;6.53;2.60;;;;;;;18.91;100.00;97276.00;5050142;28;20505;-73
2023/07/20 06:03:14;;;;;;;5.40;2.50;;;;;;;19.11;100.00;97273.88;5049947;28;20875;-72
2023/07/20 06:05:42;;;;;;;3.65;2.30;;;;;;;19.04;100.00;97277.00;5049819;28;20398;-73
2023/07/20 06:08:08;;;;;;;4.22;2.40;;;;;;;19.01;100.00;97268.81;5050273;28;20492;-73
2023/07/20 06:10:34;;;;;;;6.65;2.30;;;;;;;19.06;100.00;97276.72;5050547;28;20401;-72
2023/07/20 06:13:00;;;;;;;4.15;2.60;;;;;;;19.00;100.00;97267.22;5050193;28;20420;-72
2023/07/20 06:15:28;;;;;;;4.82;2.38;;;;;;;19.03;100.00;97290.72;5049710;28;20418;-72
2023/07/20 06:17:55;;;;;;;4.88;2.35;;;;;;;19.12;100.00;97280.84;5045362;28;20490;-72
2023/07/20 06:20:22;;;;;;;5.03;2.10;;;;;;;19.01;100.00;97276.84;5034406;28;20445;-72
2023/07/20 06:22:50;;;;;;;4.13;2.10;;;;;;;19.09;100.00;97279.59;5034736;28;20398;-72
2023/07/20 06:25:16;;;;;;;3.15;2.10;;;;;;;18.98;100.00;97285.50;5049678;28;20875;-73
2023/07/20 06:27:44;;;;;;;5.10;2.33;;;;;;;18.92;100.00;97287.53;5049768;28;20818;-72
2023/07/20 06:30:11;;;;;;;5.40;2.30;;;;;;;18.90;100.00;97287.84;5031672;28;20413;-73
2023/07/20 06:32:38;;;;;;;5.90;2.60;;;;;;;18.96;100.00;97291.16;5029867;28;20798;-73
2023/07/20 06:35:05;;;;;;;4.18;2.58;;;;;;;19.02;100.00;97287.25;5040969;28;20460;-72
2023/07/20 06:37:32;;;;;;;4.32;2.50;;;;;;;19.01;100.00;97282.22;5040863;28;20407;-71
2023/07/20 06:40:00;;;;;;;4.88;2.22;;;;;;;19.26;100.00;97282.31;5023705;28;20895;-71
2023/07/20 06:42:26;;;;;;;7.90;3.15;;;;;;;19.18;100.00;97282.28;5049792;28;20401;-73
2023/07/20 06:44:52;;;;;;;5.88;2.38;;;;;;;19.20;100.00;97280.09;5049601;28;20429;-73
2023/07/20 06:47:19;;;;;;;3.50;2.10;;;;;;;19.24;100.00;97278.38;5040548;28;20421;-73
2023/07/20 06:49:45;;;;;;;4.10;2.42;;;;;;;19.29;100.00;97278.25;5037972;28;20830;-72
2023/07/20 06:52:11;;;;;;;6.68;2.75;;;;;;;19.36;100.00;97281.28;5049754;28;20775;-73
2023/07/20 06:54:37;;;;;;;5.57;2.40;;;;;;;19.36;100.00;97275.91;5047996;28;20409;-73
2023/07/20 06:57:06;;;;;;;4.57;2.60;;;;;;;19.44;100.00;97279.72;5051942;28;20907;-72
2023/07/20 06:59:32;;;;;;;6.25;2.38;;;;;;;19.41;100.00;97283.81;5053381;28;20409;-73
2023/07/20 07:01:58;;;;;;;6.00;3.00;;;;;;;19.41;100.00;97283.81;5053214;28;20412;-73
2023/07/20 07:04:24;;;;;;;5.93;2.60;;;;;;;19.40;100.00;97271.47;5053312;28;20435;-73
2023/07/20 07:06:50;;;;;;;3.90;2.35;;;;;;;19.44;100.00;97274.34;5053060;28;20874;-74
2023/07/20 07:09:16;;;;;;;5.88;2.40;;;;;;;19.58;100.00;97273.16;5053180;28;20463;-73
2023/07/20 07:11:43;;;;;;;6.70;2.75;;;;;;;19.44;100.00;97268.97;5053218;28;20409;-72
2023/07/20 07:14:12;;;;;;;5.65;2.50;;;;;;;19.48;100.00;97270.75;5053255;28;20429;-73
2023/07/20 07:16:38;;;;;;;6.07;2.50;;;;;;;19.34;100.00;97268.16;5052835;28;20512;-73
2023/07/20 07:19:05;;;;;;;4.85;2.45;;;;;;;19.32;100.00;97272.28;5051696;28;20508;-73
2023/07/20 07:21:31;;;;;;;4.85;2.45;;;;;;;19.32;100.00;97274.94;5052848;28;20412;-73
2023/07/20 07:23:59;;;;;;;5.88;2.55;;;;;;;19.35;100.00;97260.91;5052950;28;20413;-74
2023/07/20 07:26:25;;;;;;;5.28;2.50;;;;;;;19.57;100.00;97265.41;5052765;28;20406;-73
2023/07/20 07:28:52;;;;;;;7.00;2.30;;;;;;;19.46;100.00;97262.22;5051825;28;20409;-74
2023/07/20 07:31:19;;;;;;;10.27;3.50;;;;;;;19.58;100.00;97272.38;5028269;28;20878;-73
2023/07/20 07:33:45;;;;;;;3.50;2.20;;;;;;;19.48;100.00;97260.00;5029498;28;20884;-74
2023/07/20 07:36:12;;;;;;;5.53;2.95;;;;;;;19.40;100.00;97257.28;5032654;28;20419;-74
2023/07/20 07:38:38;;;;;;;3.15;2.25;;;;;;;19.44;100.00;97261.72;5032917;28;20502;-72
2023/07/20 07:41:04;;;;;;;7.68;3.10;;;;;;;19.43;100.00;97257.44;5032607;28;20417;-73
2023/07/20 07:43:30;;;;;;;5.38;3.00;;;;;;;19.55;100.00;97263.03;5032714;28;20409;-74
2023/07/20 07:45:57;;;;;;;4.68;2.72;;;;;;;19.59;100.00;97263.22;5030848;28;20403;-73
2023/07/20 07:48:25;;;;;;;3.10;2.43;;;;;;;19.61;100.00;97261.81;5039999;28;20393;-73
2023/07/20 07:50:51;;;;;;;6.80;2.90;;;;;;;19.75;100.00;97256.31;5036312;28;20907;-73
2023/07/20 07:53:18;;;;;;;9.38;2.88;;;;;;;19.66;100.00;97256.28;5033805;28;20410;-74
2023/07/20 07:55:44;;;;;;;4.20;2.35;;;;;;;19.71;100.00;97261.50;5031919;28;20411;-74
2023/07/20 07:58:10;;;;;;;8.02;3.13;;;;;;;19.65;100.00;97253.91;5032665;28;20536;-73
2023/07/20 08:00:39;;;;;;;7.05;2.67;;;;;;;19.70;100.00;97251.88;5048193;28;20886;-74
2023/07/20 08:03:07;;;;;;;4.95;2.50;;;;;;;19.75;100.00;97253.63;5036611;28;20441;-73
2023/07/20 08:05:37;;;;;;;5.25;2.40;;;;;;;19.86;100.00;97251.41;5032449;28;20897;-73
2023/07/20 08:08:04;;;;;;;5.43;2.53;;;;;;;19.97;100.00;97252.72;5031453;28;20410;-74
2023/07/20 08:10:30;;;;;;;4.72;2.53;;;;;;;20.17;98.40;97257.47;5032576;28;20403;-73
2023/07/20 08:12:56;;;;;;;4.60;2.40;;;;;;;20.31;94.51;97251.91;5034764;28;20753;-73
2023/07/20 08:15:23;;;;;;;5.97;2.55;;;;;;;20.44;88.75;97243.75;5039243;28;20414;-73
2023/07/20 08:17:51;;;;;;;4.18;2.50;;;;;;;20.23;100.00;97250.03;5043559;28;20434;-73
2023/07/20 08:20:18;;;;;;;4.57;2.60;;;;;;;20.37;96.23;97251.47;5032151;28;20408;-72
2023/07/20 08:22:45;;;;;;;8.17;2.60;;;;;;;20.42;94.97;97254.03;5032100;28;20402;-72
2023/07/20 08:25:11;;;;;;;5.47;2.50;;;;;;;20.42;100.00;97243.25;5032148;28;20402;-72
2023/07/20 08:27:38;;;;;;;5.05;2.25;;;;;;;20.35;100.00;97253.72;5031821;28;20502;-73
2023/07/20 08:30:05;;;;;;;3.80;2.17;;;;;;;20.36;100.00;97254.50;5032194;28;20461;-73
2023/07/20 08:32:32;;;;;;;5.38;2.30;;;;;;;20.47;100.00;97250.38;5032037;28;20399;-73
2023/07/20 08:34:58;;;;;;;3.97;2.27;;;;;;;20.69;100.00;97254.75;5031792;28;20884;-74
2023/07/20 08:37:25;;;;;;;5.38;2.60;;;;;;;20.85;92.50;97259.31;5032032;28;20490;-74
2023/07/20 08:39:52;;;;;;;6.72;2.30;;;;;;;20.86;90.70;97247.47;5031918;28;20877;-72
2023/07/20 08:42:19;;;;;;;4.07;2.30;;;;;;;21.16;88.54;97255.59;5043254;28;20407;-74
2023/07/20 08:44:48;;;;;;;4.38;3.00;;;;;;;21.18;92.58;97256.91;5026263;28;20457;-73
2023/07/20 08:47:15;;;;;;;5.93;2.50;;;;;;;21.23;95.04;97247.84;5027101;28;20406;-74
2023/07/20 08:49:42;;;;;;;5.07;2.67;;;;;;;21.16;100.00;97253.72;5021556;28;20503;-73
2023/07/20 08:52:09;;;;;;;5.70;2.53;;;;;;;21.08;100.00;97254.50;5045063;28;20415;-73
2023/07/20 08:54:36;;;;;;;5.53;3.33;;;;;;;21.22;100.00;97249.75;5010668;28;20768;-74
2023/07/20 08:57:07;;;;;;;3.78;2.50;;;;;;;21.31;100.00;97244.31;5030008;28;20415;-74
2023/07/20 08:59:36;;;;;;;2.83;2.08;;;;;;;21.47;100.00;97234.59;5034010;28;20411;-74
2023/07/20 09:02:04;;;;;;;5.68;1.92;;;;;;;21.60;100.00;97241.63;5037876;28;20438;-74
2023/07/20 09:04:30;;;;;;;4.05;2.15;;;;;;;21.63;100.00;97230.22;5029498;28;20510;-73
2023/07/20 09:06:57;;;;;;;4.65;2.22;;;;;;;21.53;100.00;97238.66;5049452;28;20409;-73
2023/07/20 09:09:23;;;;;;;3.20;1.80;;;;;;;21.47;100.00;97245.38;5051162;28;20405;-73
2023/07/20 09:11:50;;;;;;;3.88;1.92;;;;;;;21.55;92.58;97241.84;5051144;28;20429;-73
2023/07/20 09:14:17;;;;;;;4.20;1.85;;;;;;;21.44;93.41;97245.22;5051275;28;20444;-74
2023/07/20 09:16:51;;;;;;;2.88;1.95;;;;;;;21.43;100.00;97246.31;5034534;28;20473;-74
2023/07/20 09:19:17;;;;;;;3.15;1.83;;;;;;;21.68;100.00;97237.31;5031083;28;20492;-74
2023/07/20 09:21:46;;;;;;;3.05;1.88;;;;;;;21.69;98.52;97236.22;5031220;28;20817;-75
2023/07/20 09:24:13;;;;;;;2.80;1.90;;;;;;;21.82;96.79;97243.25;5031222;28;20395;-73
2023/07/20 09:26:42;;;;;;;4.95;2.35;;;;;;;22.05;78.34;97254.53;5033007;28;20418;-75
2023/07/20 09:29:10;;;;;;;2.47;1.80;;;;;;;21.58;91.36;97243.88;5036802;28;20401;-75
2023/07/20 09:31:40;;;;;;;3.75;2.08;;;;;;;21.39;100.00;97240.81;5034709;28;20410;-74
2023/07/20 09:34:07;;;;;;;3.30;1.92;;;;;;;21.27;100.00;97248.00;5034408;28;20899;-74
2023/07/20 09:36:36;;;;;;;2.10;1.63;;;;;;;21.37;100.00;97234.16;5034211;28;20426;-73
2023/07/20 09:39:04;;;;;;;2.42;1.80;;;;;;;21.45;100.00;97231.44;5037281;28;20404;-73
2023/07/20 09:41:41;;;;;;;2.85;1.90;;;;;;;21.62;98.76;97219.78;5035307;28;20406;-73
2023/07/20 09:44:10;;;;;;;5.22;1.90;;;;;;;21.91;84.71;97238.59;5024317;28;20405;-72
2023/07/20 09:46:45;;;;;;;3.53;1.80;;;;;;;21.97;88.86;97228.44;5036722;28;20406;-73
2023/07/20 09:49:12;;;;;;;3.67;1.90;;;;;;;22.27;74.93;97237.25;5043518;28;20401;-73
2023/07/20 09:51:39;;;;;;;3.80;1.97;;;;;;;22.03;81.72;97237.13;5034154;28;20407;-73
2023/07/20 09:54:06;;;;;;;3.17;1.80;;;;;;;21.96;83.81;97235.72;5028928;28;20497;-73
2023/07/20 09:56:34;;;;;;;4.65;1.80;;;;;;;21.81;91.05;97230.09;5029360;28;20415;-74
2023/07/20 09:59:00;;;;;;;2.20;1.60;;;;;;;21.91;82.74;97227.81;5030136;28;20435;-73
2023/07/20 10:01:28;;;;;;;3.78;2.00;;;;;;;21.99;74.93;97223.50;5029656;28;20865;-72
2023/07/20 10:04:01;;;;;;;4.80;1.98;;;;;;;22.10;75.08;97235.50;5030202;28;20411;-73
2023/07/20 10:06:32;;;;;;;3.55;1.65;;;;;;;22.29;79.60;97227.72;5030227;28;20414;-73
2023/07/20 10:09:03;;;;;;;3.72;1.95;;;;;;;22.35;84.87;97217.50;5028898;28;20449;-73
2023/07/20 10:11:31;;;;;;;3.08;1.88;;;;;;;22.48;88.63;97215.66;5030120;28;20410;-74
2023/07/20 10:14:02;;;;;;;2.92;1.70;;;;;;;22.46;80.45;97223.28;5029974;28;20486;-74
2023/07/20 10:16:31;;;;;;;2.15;1.60;;;;;;;22.43;91.86;97216.63;5030111;28;20908;-74
2023/07/20 10:19:06;;;;;;;2.38;1.50;;;;;;;22.58;81.28;97215.22;5030039;28;20411;-72
2023/07/20 10:21:35;;;;;;;2.63;1.80;;;;;;;22.42;85.51;97209.66;5029932;28;20437;-74
2023/07/20 10:24:02;;;;;;;2.00;1.33;;;;;;;22.49;77.25;97212.59;5029631;28;20431;-74
2023/07/20 10:26:29;;;;;;;3.40;1.70;;;;;;;22.37;76.76;97215.28;5029710;28;20398;-73
2023/07/20 10:28:56;;;;;;;2.45;1.65;;;;;;;22.32;82.74;97210.88;5029931;28;20411;-74
2023/07/20 10:31:23;;;;;;;2.58;1.50;;;;;;;22.43;89.22;97207.75;5032936;28;20976;-74
2023/07/20 10:33:50;;;;;;;3.90;1.77;;;;;;;22.62;86.58;97206.16;5033695;28;20881;-73
2023/07/20 10:36:26;;;;;;;3.25;1.77;;;;;;;22.97;77.26;97201.19;5033639;28;20422;-74
2023/07/20 10:38:54;;;;;;;4.90;1.85;;;;;;;23.07;70.03;97195.34;5033819;28;20812;-72
2023/07/20 10:41:24;;;;;;;6.22;2.25;;;;;;;23.16;65.57;97197.94;5033630;28;20403;-72
2023/07/20 10:43:50;;;;;;;3.47;1.50;;;;;;;23.01;68.38;97190.50;5026396;28;20432;-73
2023/07/20 10:46:43;;;;;;;2.42;1.38;;;;;;;22.95;66.69;97194.53;5053492;28;20397;-73
2023/07/20 10:49:10;;;;;;;3.40;1.40;;;;;;;22.85;72.24;97195.00;5053623;28;20389;-74
2023/07/20 10:51:42;;;;;;;2.33;1.60;;;;;;;22.73;65.67;97193.81;5053566;28;20988;-72
2023/07/20 10:54:29;;;;;;;2.87;1.70;;;;;;;22.87;67.79;97184.63;5053491;28;20409;-74
2023/07/20 10:56:56;;;;;;;1.77;1.23;;;;;;;22.96;76.06;97183.41;5053101;28;20938;-74
2023/07/20 10:59:40;;;;;;;3.17;1.70;;;;;;;23.07;72.40;97179.16;5053468;28;20435;-74
2023/07/20 11:02:08;;;;;;;2.80;1.55;;;;;;;23.06;81.72;97179.50;5053236;28;20463;-73
2023/07/20 11:04:41;;;;;;;1.50;1.10;;;;;;;23.06;90.67;97180.28;5038169;28;20816;-73
2023/07/20 11:07:09;;;;;;;2.70;1.37;;;;;;;23.02;92.47;97186.66;5033261;28;20399;-73
2023/07/20 11:09:36;;;;;;;2.38;1.52;;;;;;;23.15;86.39;97174.78;5033377;28;20411;-73
2023/07/20 11:12:10;;;;;;;2.05;1.30;;;;;;;23.30;79.93;97179.50;5033161;28;20414;-74
2023/07/20 11:14:41;;;;;;;1.92;1.30;;;;;;;23.46;87.86;97188.47;5033240;28;20399;-74
2023/07/20 11:17:13;;;;;;;1.83;1.23;;;;;;;23.59;83.17;97185.81;5033194;28;20541;-74
2023/07/20 11:19:40;;;;;;;4.82;1.70;;;;;;;23.75;88.38;97184.78;5033453;28;20415;-75
2023/07/20 11:22:09;;;;;;;2.30;1.40;;;;;;;24.02;85.25;97185.94;5033052;28;20919;-74
2023/07/20 11:24:39;;;;;;;1.50;1.30;;;;;;;24.14;83.06;97194.00;5032857;28;20427;-75
2023/07/20 11:27:05;;;;;;;3.00;1.48;;;;;;;24.41;59.12;97189.75;5032905;28;20406;-73
2023/07/20 11:29:32;;;;;;;4.57;1.50;;;;;;;24.17;67.33;97181.72;5032534;28;20407;-74